createdAt,value
2023-02-09T00:00:11.045Z,68.69
2023-02-09T00:01:10.415Z,69.20
2023-02-09T00:02:07.534Z,69.18
2023-02-09T00:03:04.195Z,68.65
2023-02-09T00:04:02.622Z,70.39
2023-02-09T00:04:59.739Z,69.59
2023-02-09T00:05:58.532Z,69.38
2023-02-09T00:06:55.180Z,69.37
2023-02-09T00:07:51.832Z,68.84
2023-02-09T00:08:48.664Z,69.22
2023-02-09T00:09:45.453Z,67.97
2023-02-09T00:10:42.055Z,69.31
2023-02-09T00:11:57.144Z,68.93
2023-02-09T00:13:12.592Z,68.55
2023-02-09T00:14:10.842Z,68.98
2023-02-09T00:15:08.490Z,69.15
2023-02-09T00:16:05.695Z,69.18
2023-02-09T00:17:03.717Z,68.23
2023-02-09T00:18:00.303Z,68.45
2023-02-09T00:18:57.391Z,69.20
2023-02-09T00:19:55.171Z,68.90
2023-02-09T00:21:03.679Z,68.75
2023-02-09T00:22:00.732Z,68.33
2023-02-09T00:22:57.327Z,68.92
2023-02-09T00:23:53.942Z,68.89
2023-02-09T00:24:50.531Z,68.45
2023-02-09T00:25:47.162Z,68.07
2023-02-09T00:26:44.378Z,67.99
2023-02-09T00:27:40.982Z,68.05
2023-02-09T00:28:38.046Z,68.06
2023-02-09T00:29:34.885Z,68.47
2023-02-09T00:30:31.485Z,68.66
2023-02-09T00:31:28.302Z,68.76
2023-02-09T00:32:25.049Z,69.59
2023-02-09T00:33:21.981Z,69.34
2023-02-09T00:34:19.144Z,69.16
2023-02-09T00:35:15.802Z,68.30
2023-02-09T00:36:13.919Z,68.84
2023-02-09T00:37:10.586Z,67.63
2023-02-09T00:38:07.581Z,68.49
2023-02-09T00:39:04.457Z,69.52
2023-02-09T00:40:01.017Z,69.99
2023-02-09T00:40:57.631Z,69.81
2023-02-09T00:42:06.394Z,69.54
2023-02-09T00:43:03.426Z,69.03
2023-02-09T00:44:00.151Z,68.91
2023-02-09T00:44:56.758Z,69.10
2023-02-09T00:45:53.367Z,68.45
2023-02-09T00:46:52.211Z,68.20
2023-02-09T00:47:48.822Z,68.99
2023-02-09T00:48:45.429Z,68.61
2023-02-09T00:49:42.057Z,68.51
2023-02-09T00:50:38.643Z,68.84
2023-02-09T00:51:35.608Z,68.49
2023-02-09T00:52:33.357Z,67.93
2023-02-09T00:53:29.902Z,68.85
2023-02-09T00:54:26.906Z,67.72
2023-02-09T00:55:23.571Z,67.76
2023-02-09T00:56:20.245Z,67.44
2023-02-09T00:57:16.820Z,68.89
2023-02-09T00:58:13.618Z,68.00
2023-02-09T00:59:11.165Z,68.10
2023-02-09T01:00:08.613Z,68.28
2023-02-09T01:01:05.396Z,67.85
2023-02-09T01:02:02.852Z,68.24
2023-02-09T01:02:59.696Z,67.51
2023-02-09T01:03:56.939Z,67.87
2023-02-09T01:04:53.579Z,67.79
2023-02-09T01:05:50.235Z,68.18
2023-02-09T01:06:46.793Z,67.64
2023-02-09T01:07:43.446Z,68.60
2023-02-09T01:08:40.075Z,67.94
2023-02-09T01:09:36.739Z,67.73
2023-02-09T01:10:33.974Z,67.68
2023-02-09T01:11:30.637Z,67.36
2023-02-09T01:12:27.226Z,67.48
2023-02-09T01:13:23.901Z,67.28
2023-02-09T01:14:20.483Z,67.21
2023-02-09T01:15:17.135Z,67.57
2023-02-09T01:16:16.517Z,67.35
2023-02-09T01:17:14.217Z,67.56
2023-02-09T01:18:10.814Z,67.80
2023-02-09T01:19:07.362Z,67.61
2023-02-09T01:20:06.259Z,67.42
2023-02-09T01:21:03.319Z,67.38
2023-02-09T01:22:00.132Z,67.27
2023-02-09T01:22:56.829Z,68.02
2023-02-09T01:23:53.492Z,68.16
2023-02-09T01:24:50.102Z,68.01
2023-02-09T01:25:46.707Z,68.38
2023-02-09T01:26:43.412Z,68.95
2023-02-09T01:27:40.524Z,69.23
2023-02-09T01:28:37.895Z,68.66
2023-02-09T01:29:34.472Z,68.83
2023-02-09T01:30:31.105Z,69.57
2023-02-09T01:31:30.567Z,69.25
2023-02-09T01:32:27.498Z,69.05
2023-02-09T01:33:24.156Z,69.70
2023-02-09T01:34:20.731Z,70.41
2023-02-09T01:35:17.652Z,70.22
2023-02-09T01:36:14.464Z,70.52
2023-02-09T01:37:11.070Z,70.76
2023-02-09T01:38:07.631Z,70.22
2023-02-09T01:39:04.915Z,70.51
2023-02-09T01:40:03.598Z,70.85
2023-02-09T01:41:00.173Z,70.58
2023-02-09T01:41:56.784Z,70.55
2023-02-09T01:42:53.376Z,70.82
2023-02-09T01:44:06.358Z,70.95
2023-02-09T01:45:08.210Z,71.74
2023-02-09T01:46:05.003Z,71.55
2023-02-09T01:47:01.587Z,71.62
2023-02-09T01:48:01.505Z,71.95
2023-02-09T01:49:09.623Z,73.01
2023-02-09T01:50:06.735Z,73.04
2023-02-09T01:51:04.035Z,72.28
2023-02-09T01:52:10.199Z,72.17
2023-02-09T01:53:07.549Z,72.77
2023-02-09T01:54:13.340Z,72.64
2023-02-09T01:55:14.236Z,72.87
2023-02-09T01:56:21.316Z,73.06
2023-02-09T01:57:27.797Z,73.29
2023-02-09T01:58:26.830Z,73.36
2023-02-09T01:59:24.411Z,72.79
2023-02-09T02:00:22.396Z,73.13
2023-02-09T02:01:19.150Z,73.02
2023-02-09T02:02:16.059Z,72.83
2023-02-09T02:03:17.482Z,72.70
2023-02-09T02:04:14.361Z,73.28
2023-02-09T02:05:11.361Z,72.99
2023-02-09T02:06:14.081Z,72.57
2023-02-09T02:07:17.883Z,72.97
2023-02-09T02:08:20.288Z,72.64
2023-02-09T02:09:17.783Z,73.15
2023-02-09T02:10:14.570Z,72.90
2023-02-09T02:11:11.328Z,72.80
2023-02-09T02:12:07.970Z,72.38
2023-02-09T02:13:04.672Z,72.34
2023-02-09T02:14:01.422Z,72.60
2023-02-09T02:14:58.275Z,73.00
2023-02-09T02:16:02.014Z,72.98
2023-02-09T02:17:33.354Z,73.32
2023-02-09T02:18:55.301Z,73.00
2023-02-09T02:20:15.970Z,72.50
2023-02-09T02:21:18.135Z,72.29
2023-02-09T02:22:52.342Z,72.30
2023-02-09T02:23:59.601Z,72.64
2023-02-09T02:25:17.041Z,72.96
2023-02-09T02:26:22.443Z,72.87
2023-02-09T02:27:40.746Z,72.91
2023-02-09T02:29:03.687Z,72.57
2023-02-09T02:30:06.373Z,71.82
2023-02-09T02:31:14.923Z,71.92
2023-02-09T02:32:29.779Z,71.62
2023-02-09T02:33:51.208Z,71.60
2023-02-09T02:35:04.995Z,70.37
2023-02-09T02:36:28.448Z,71.04
2023-02-09T02:37:37.910Z,70.49
2023-02-09T02:38:53.767Z,70.14
2023-02-09T02:39:55.855Z,69.90
2023-02-09T02:40:52.592Z,70.05
2023-02-09T02:42:13.707Z,70.40
2023-02-09T02:43:59.776Z,69.97
2023-02-09T02:45:15.196Z,69.60
2023-02-09T02:46:35.879Z,69.65
2023-02-09T02:47:36.847Z,69.63
2023-02-09T02:48:47.225Z,69.15
2023-02-09T02:49:55.784Z,68.49
2023-02-09T02:50:55.442Z,69.02
2023-02-09T02:51:56.752Z,68.45
2023-02-09T02:52:56.623Z,68.49
2023-02-09T02:53:57.072Z,68.73
2023-02-09T02:55:05.144Z,68.03
2023-02-09T02:56:08.107Z,68.01
2023-02-09T02:57:11.416Z,67.65
2023-02-09T02:58:11.385Z,67.46
2023-02-09T02:59:14.241Z,67.55
2023-02-09T03:00:15.022Z,67.02
2023-02-09T03:01:17.431Z,66.81
2023-02-09T03:02:17.522Z,67.08
2023-02-09T03:03:19.755Z,66.98
2023-02-09T03:04:18.206Z,67.43
2023-02-09T03:05:17.943Z,66.98
2023-02-09T03:06:15.946Z,66.99
2023-02-09T03:07:12.725Z,66.84
2023-02-09T03:08:09.393Z,66.63
2023-02-09T03:09:06.180Z,67.53
2023-02-09T03:10:22.875Z,67.37
2023-02-09T03:11:21.439Z,68.00
2023-02-09T03:12:39.875Z,66.70
2023-02-09T03:13:45.553Z,67.68
2023-02-09T03:15:08.132Z,67.47
2023-02-09T03:16:23.450Z,67.59
2023-02-09T03:17:34.789Z,67.77
2023-02-09T03:18:43.701Z,67.76
2023-02-09T03:19:51.313Z,67.56
2023-02-09T03:21:04.731Z,67.92
2023-02-09T03:22:08.031Z,68.43
2023-02-09T03:23:10.540Z,68.44
2023-02-09T03:24:37.732Z,68.77
2023-02-09T03:25:45.202Z,68.64
2023-02-09T03:26:49.697Z,68.86
2023-02-09T03:27:59.458Z,68.76
2023-02-09T03:28:57.939Z,69.31
2023-02-09T03:29:59.178Z,69.51
2023-02-09T03:30:57.691Z,69.12
2023-02-09T03:31:55.155Z,69.44
2023-02-09T03:32:56.372Z,69.71
2023-02-09T03:33:53.068Z,69.51
2023-02-09T03:34:50.210Z,69.33
2023-02-09T03:35:50.348Z,69.64
2023-02-09T03:36:52.691Z,69.61
2023-02-09T03:37:49.210Z,69.39
2023-02-09T03:38:45.852Z,69.81
2023-02-09T03:39:42.487Z,69.73
2023-02-09T03:40:39.105Z,69.66
2023-02-09T03:41:35.700Z,69.55
2023-02-09T03:42:32.282Z,69.55
2023-02-09T03:43:47.441Z,69.76
2023-02-09T03:44:43.978Z,69.59
2023-02-09T03:45:40.717Z,69.88
2023-02-09T03:46:37.360Z,69.84
2023-02-09T03:47:34.610Z,69.37
2023-02-09T03:48:31.177Z,69.54
2023-02-09T03:49:33.643Z,69.25
2023-02-09T03:50:30.269Z,69.44
2023-02-09T03:51:26.899Z,69.56
2023-02-09T03:52:23.518Z,68.87
2023-02-09T03:53:20.134Z,69.60
2023-02-09T03:54:16.848Z,69.11
2023-02-09T03:55:13.482Z,69.41
2023-02-09T03:56:10.085Z,69.81
2023-02-09T03:57:07.754Z,69.37
2023-02-09T03:58:04.472Z,69.69
2023-02-09T03:59:01.180Z,69.49
2023-02-09T03:59:57.842Z,69.67
2023-02-09T04:00:54.554Z,69.13
2023-02-09T04:01:52.581Z,68.92
2023-02-09T04:02:49.173Z,69.34
2023-02-09T04:03:45.820Z,69.82
2023-02-09T04:04:42.455Z,69.45
2023-02-09T04:05:39.149Z,69.92
2023-02-09T04:06:36.499Z,69.30
2023-02-09T04:07:33.050Z,70.19
2023-02-09T04:08:30.118Z,69.46
2023-02-09T04:09:28.346Z,69.94
2023-02-09T04:10:24.959Z,69.38
2023-02-09T04:11:23.411Z,69.65
2023-02-09T04:12:20.203Z,69.75
2023-02-09T04:13:16.785Z,69.29
2023-02-09T04:14:13.390Z,70.47
2023-02-09T04:15:10.378Z,69.98
2023-02-09T04:16:07.223Z,70.50
2023-02-09T04:17:03.916Z,71.15
2023-02-09T04:18:00.488Z,70.86
2023-02-09T04:18:57.186Z,70.68
2023-02-09T04:19:53.768Z,70.79
2023-02-09T04:20:50.371Z,70.15
2023-02-09T04:21:46.907Z,70.55
2023-02-09T04:22:43.497Z,69.78
2023-02-09T04:23:40.132Z,69.82
2023-02-09T04:24:36.689Z,69.34
2023-02-09T04:25:33.289Z,69.91
2023-02-09T04:26:29.897Z,70.40
2023-02-09T04:27:28.461Z,69.86
2023-02-09T04:28:25.116Z,70.32
2023-02-09T04:29:21.731Z,70.82
2023-02-09T04:30:18.445Z,69.82
2023-02-09T04:31:15.648Z,70.19
2023-02-09T04:32:12.372Z,70.05
2023-02-09T04:33:11.011Z,71.09
2023-02-09T04:34:07.608Z,70.78
2023-02-09T04:35:04.535Z,70.88
2023-02-09T04:36:01.207Z,70.47
2023-02-09T04:36:57.768Z,69.50
2023-02-09T04:37:54.471Z,69.70
2023-02-09T04:38:51.169Z,70.16
2023-02-09T04:39:47.721Z,69.98
2023-02-09T04:40:44.575Z,69.22
2023-02-09T04:41:41.319Z,69.57
2023-02-09T04:42:37.980Z,69.99
2023-02-09T04:43:34.733Z,69.62
2023-02-09T04:44:31.313Z,69.79
2023-02-09T04:45:28.048Z,69.50
2023-02-09T04:46:24.668Z,70.14
2023-02-09T04:47:21.330Z,69.96
2023-02-09T04:48:20.441Z,69.87
2023-02-09T04:49:17.055Z,69.78
2023-02-09T04:50:15.047Z,70.04
2023-02-09T04:51:11.718Z,70.09
2023-02-09T04:52:08.667Z,69.51
2023-02-09T04:53:05.379Z,69.96
2023-02-09T04:54:01.930Z,69.98
2023-02-09T04:54:58.511Z,69.72
2023-02-09T04:55:55.139Z,69.87
2023-02-09T04:57:11.827Z,70.13
2023-02-09T04:58:30.479Z,70.45
2023-02-09T04:59:34.991Z,70.26
2023-02-09T05:00:31.715Z,69.74
2023-02-09T05:01:28.536Z,70.60
2023-02-09T05:02:25.149Z,70.27
2023-02-09T05:03:24.504Z,69.86
2023-02-09T05:04:21.305Z,69.86
2023-02-09T05:05:19.728Z,69.60
2023-02-09T05:06:17.243Z,70.63
2023-02-09T05:07:13.832Z,70.89
2023-02-09T05:08:10.541Z,71.79
2023-02-09T05:09:07.176Z,70.91
2023-02-09T05:10:03.951Z,70.28
2023-02-09T05:11:00.644Z,70.54
2023-02-09T05:11:57.256Z,70.74
2023-02-09T05:12:53.877Z,69.99
2023-02-09T05:13:50.446Z,69.66
2023-02-09T05:14:46.976Z,70.56
2023-02-09T05:15:43.793Z,69.90
2023-02-09T05:16:40.418Z,70.15
2023-02-09T05:17:37.295Z,70.69
2023-02-09T05:18:35.632Z,69.92
2023-02-09T05:19:32.364Z,70.38
2023-02-09T05:20:28.932Z,70.05
2023-02-09T05:21:25.494Z,70.07
2023-02-09T05:22:22.059Z,70.00
2023-02-09T05:23:18.728Z,70.03
2023-02-09T05:24:15.333Z,69.82
2023-02-09T05:25:11.940Z,70.48
2023-02-09T05:26:09.024Z,69.90
2023-02-09T05:27:05.797Z,70.18
2023-02-09T05:28:03.133Z,69.79
2023-02-09T05:28:59.794Z,69.92
2023-02-09T05:29:56.421Z,70.54
2023-02-09T05:30:54.240Z,70.53
2023-02-09T05:31:50.903Z,70.96
2023-02-09T05:32:47.884Z,71.31
2023-02-09T05:33:44.509Z,70.72
2023-02-09T05:34:41.369Z,71.39
2023-02-09T05:35:37.979Z,70.32
2023-02-09T05:36:34.536Z,70.63
2023-02-09T05:37:31.121Z,70.29
2023-02-09T05:38:27.784Z,70.48
2023-02-09T05:39:24.446Z,70.68
2023-02-09T05:40:21.137Z,70.82
2023-02-09T05:41:37.731Z,70.16
2023-02-09T05:42:34.349Z,70.32
2023-02-09T05:43:30.946Z,70.29
2023-02-09T05:44:27.603Z,70.69
2023-02-09T05:45:24.266Z,70.71
2023-02-09T05:46:20.883Z,70.84
2023-02-09T05:47:20.164Z,69.67
2023-02-09T05:48:16.789Z,70.09
2023-02-09T05:49:13.403Z,70.10
2023-02-09T05:50:09.942Z,69.95
2023-02-09T05:51:06.619Z,69.67
2023-02-09T05:52:03.500Z,70.04
2023-02-09T05:53:00.189Z,69.43
2023-02-09T05:53:56.736Z,69.25
2023-02-09T05:54:53.375Z,69.75
2023-02-09T05:55:49.930Z,69.51
2023-02-09T05:56:46.517Z,69.70
2023-02-09T05:57:43.131Z,70.16
2023-02-09T05:58:39.701Z,69.93
2023-02-09T05:59:36.272Z,69.43
2023-02-09T06:00:33.035Z,69.40
2023-02-09T06:01:29.577Z,69.62
2023-02-09T06:02:26.294Z,69.39
2023-02-09T06:03:23.022Z,69.33
2023-02-09T06:04:19.810Z,69.91
2023-02-09T06:05:16.594Z,69.50
2023-02-09T06:06:13.194Z,69.00
2023-02-09T06:07:11.872Z,68.93
2023-02-09T06:08:08.612Z,68.41
2023-02-09T06:09:05.268Z,67.82
2023-02-09T06:10:02.012Z,67.97
2023-02-09T06:10:58.714Z,67.46
2023-02-09T06:11:55.371Z,68.22
2023-02-09T06:12:51.951Z,68.37
2023-02-09T06:13:48.616Z,67.75
2023-02-09T06:14:45.242Z,67.63
2023-02-09T06:15:41.904Z,66.92
2023-02-09T06:16:38.612Z,66.90
2023-02-09T06:17:35.168Z,66.31
2023-02-09T06:18:31.830Z,66.58
2023-02-09T06:19:28.430Z,66.89
2023-02-09T06:20:25.031Z,67.13
2023-02-09T06:21:21.615Z,67.64
2023-02-09T06:22:18.198Z,66.91
2023-02-09T06:23:14.908Z,67.27
2023-02-09T06:24:12.504Z,67.74
2023-02-09T06:25:09.239Z,67.93
2023-02-09T06:26:10.463Z,67.66
2023-02-09T06:27:07.105Z,67.92
2023-02-09T06:28:03.834Z,67.84
2023-02-09T06:29:00.596Z,67.71
2023-02-09T06:29:57.240Z,67.30
2023-02-09T06:30:54.294Z,67.19
2023-02-09T06:31:51.238Z,67.35
2023-02-09T06:32:47.915Z,67.66
2023-02-09T06:33:44.597Z,67.95
2023-02-09T06:34:41.190Z,67.21
2023-02-09T06:35:37.798Z,66.92
2023-02-09T06:36:34.751Z,66.47
2023-02-09T06:37:31.370Z,66.44
2023-02-09T06:38:31.291Z,65.90
2023-02-09T06:39:29.917Z,66.51
2023-02-09T06:40:26.568Z,66.14
2023-02-09T06:41:23.240Z,65.67
2023-02-09T06:42:19.850Z,65.85
2023-02-09T06:43:17.580Z,65.55
2023-02-09T06:44:14.234Z,65.49
2023-02-09T06:45:15.539Z,64.49
2023-02-09T06:46:13.364Z,64.55
2023-02-09T06:47:10.048Z,64.46
2023-02-09T06:48:08.281Z,63.63
2023-02-09T06:49:05.145Z,63.26
2023-02-09T06:50:02.160Z,63.03
2023-02-09T06:50:58.943Z,64.44
2023-02-09T06:51:55.776Z,64.25
2023-02-09T06:52:53.448Z,63.78
2023-02-09T06:53:50.180Z,63.31
2023-02-09T06:54:46.831Z,62.86
2023-02-09T06:55:43.449Z,62.82
2023-02-09T06:56:40.184Z,62.65
2023-02-09T06:57:37.259Z,62.10
2023-02-09T06:58:34.568Z,62.36
2023-02-09T06:59:31.221Z,62.53
2023-02-09T07:00:28.250Z,62.99
2023-02-09T07:01:24.899Z,63.34
2023-02-09T07:02:21.608Z,63.54
2023-02-09T07:03:18.261Z,62.72
2023-02-09T07:04:14.844Z,63.41
2023-02-09T07:05:12.434Z,62.23
2023-02-09T07:06:14.041Z,63.09
2023-02-09T07:07:10.752Z,62.23
2023-02-09T07:08:07.429Z,61.96
2023-02-09T07:09:04.152Z,61.22
2023-02-09T07:10:00.746Z,61.15
2023-02-09T07:10:57.361Z,61.52
2023-02-09T07:11:53.978Z,61.41
2023-02-09T07:12:50.627Z,62.05
2023-02-09T07:13:47.355Z,61.87
2023-02-09T07:14:43.951Z,61.67
2023-02-09T07:15:40.562Z,60.74
2023-02-09T07:16:37.184Z,59.21
2023-02-09T07:17:34.018Z,59.61
2023-02-09T07:18:30.756Z,59.42
2023-02-09T07:19:27.980Z,58.85
2023-02-09T07:20:24.560Z,59.24
2023-02-09T07:21:21.548Z,60.25
2023-02-09T07:22:18.081Z,59.62
2023-02-09T07:23:14.669Z,58.51
2023-02-09T07:24:11.302Z,59.39
2023-02-09T07:25:07.967Z,58.78
2023-02-09T07:26:06.832Z,58.40
2023-02-09T07:27:04.975Z,56.56
2023-02-09T07:28:01.610Z,58.05
2023-02-09T07:28:58.154Z,59.63
2023-02-09T07:29:54.730Z,58.22
2023-02-09T07:30:52.896Z,57.96
2023-02-09T07:31:49.538Z,58.55
2023-02-09T07:32:46.120Z,58.44
2023-02-09T07:33:42.913Z,57.77
2023-02-09T07:34:39.761Z,57.99
2023-02-09T07:35:40.502Z,60.39
2023-02-09T07:36:37.146Z,60.28
2023-02-09T07:37:35.918Z,60.04
2023-02-09T07:38:33.466Z,60.53
2023-02-09T07:39:30.396Z,58.64
2023-02-09T07:40:27.538Z,59.81
2023-02-09T07:41:28.680Z,58.10
2023-02-09T07:42:25.274Z,58.18
2023-02-09T07:43:21.830Z,58.67
2023-02-09T07:44:18.633Z,60.50
2023-02-09T07:45:15.361Z,61.54
2023-02-09T07:46:17.425Z,60.22
2023-02-09T07:47:14.462Z,60.77
2023-02-09T07:48:11.852Z,63.41
2023-02-09T07:49:08.508Z,63.53
2023-02-09T07:50:05.880Z,63.07
2023-02-09T07:51:03.306Z,63.56
2023-02-09T07:51:59.935Z,64.44
2023-02-09T07:52:56.642Z,64.30
2023-02-09T07:53:53.676Z,63.98
2023-02-09T07:54:51.721Z,64.68
2023-02-09T07:55:48.521Z,63.49
2023-02-09T07:56:45.253Z,64.00
2023-02-09T07:57:41.820Z,64.77
2023-02-09T07:58:38.571Z,64.64
2023-02-09T07:59:35.277Z,64.23
2023-02-09T08:00:31.871Z,63.70
2023-02-09T08:01:28.699Z,63.50
2023-02-09T08:02:36.622Z,63.57
2023-02-09T08:03:35.921Z,62.60
2023-02-09T08:04:32.539Z,63.91
2023-02-09T08:05:29.160Z,63.61
2023-02-09T08:06:42.054Z,64.16
2023-02-09T08:07:40.370Z,63.21
2023-02-09T08:08:36.989Z,63.13
2023-02-09T08:09:33.783Z,62.93
2023-02-09T08:10:30.544Z,61.52
2023-02-09T08:11:51.327Z,62.33
2023-02-09T08:12:59.953Z,63.23
2023-02-09T08:14:01.844Z,61.80
2023-02-09T08:14:58.479Z,60.98
2023-02-09T08:16:00.902Z,60.72
2023-02-09T08:17:20.335Z,61.30
2023-02-09T08:18:27.511Z,61.79
2023-02-09T08:19:24.617Z,62.14
2023-02-09T08:20:25.612Z,61.44
2023-02-09T08:21:22.971Z,60.82
2023-02-09T08:22:21.984Z,61.22
2023-02-09T08:23:33.716Z,60.12
2023-02-09T08:24:31.944Z,60.64
2023-02-09T08:25:28.674Z,61.22
2023-02-09T08:26:25.937Z,61.32
2023-02-09T08:27:23.291Z,59.93
2023-02-09T08:28:21.736Z,60.08
2023-02-09T08:29:18.602Z,59.51
2023-02-09T08:30:17.342Z,60.26
2023-02-09T08:31:16.923Z,59.86
2023-02-09T08:32:13.749Z,61.29
2023-02-09T08:33:10.395Z,60.58
2023-02-09T08:34:07.277Z,60.67
2023-02-09T08:35:04.275Z,59.79
2023-02-09T08:36:01.048Z,59.96
2023-02-09T08:36:57.653Z,60.49
2023-02-09T08:37:54.333Z,59.88
2023-02-09T08:38:50.893Z,60.91
2023-02-09T08:39:47.528Z,61.16
2023-02-09T08:40:44.282Z,57.75
2023-02-09T08:41:40.946Z,58.90
2023-02-09T08:42:37.581Z,57.46
2023-02-09T08:43:35.284Z,56.23
2023-02-09T08:44:32.008Z,55.80
2023-02-09T08:45:29.016Z,56.05
2023-02-09T08:46:25.851Z,54.08
2023-02-09T08:47:23.004Z,53.56
2023-02-09T08:48:19.603Z,52.84
2023-02-09T08:49:16.247Z,54.14
2023-02-09T08:50:12.894Z,56.01
2023-02-09T08:51:11.384Z,56.96
2023-02-09T08:52:08.428Z,57.75
2023-02-09T08:53:06.860Z,58.11
2023-02-09T08:54:03.529Z,55.71
2023-02-09T08:55:00.177Z,55.00
2023-02-09T08:55:56.813Z,55.16
2023-02-09T08:56:53.496Z,55.66
2023-02-09T08:57:50.136Z,54.18
2023-02-09T08:58:46.778Z,52.49
2023-02-09T08:59:43.385Z,51.82
2023-02-09T09:00:39.999Z,51.85
2023-02-09T09:01:36.739Z,52.92
2023-02-09T09:02:34.057Z,52.68
2023-02-09T09:03:32.875Z,52.87
2023-02-09T09:04:29.616Z,49.31
2023-02-09T09:05:26.280Z,51.20
2023-02-09T09:06:23.086Z,51.31
2023-02-09T09:07:19.744Z,50.57
2023-02-09T09:08:16.348Z,51.01
2023-02-09T09:09:13.090Z,51.06
2023-02-09T09:10:10.945Z,49.70
2023-02-09T09:11:12.911Z,50.07
2023-02-09T09:12:09.637Z,51.07
2023-02-09T09:13:06.323Z,51.15
2023-02-09T09:14:02.914Z,50.15
2023-02-09T09:14:59.481Z,49.59
2023-02-09T09:15:56.305Z,50.31
2023-02-09T09:16:53.386Z,51.99
2023-02-09T09:17:50.010Z,51.51
2023-02-09T09:18:47.076Z,50.34
2023-02-09T09:19:43.755Z,51.79
2023-02-09T09:20:41.379Z,49.45
2023-02-09T09:21:37.980Z,49.66
2023-02-09T09:22:34.913Z,50.09
2023-02-09T09:23:31.515Z,49.28
2023-02-09T09:24:28.401Z,50.40
2023-02-09T09:25:25.274Z,48.89
2023-02-09T09:26:21.966Z,50.53
2023-02-09T09:27:18.626Z,50.34
2023-02-09T09:28:15.932Z,51.05
2023-02-09T09:29:12.537Z,50.73
2023-02-09T09:30:09.809Z,51.39
2023-02-09T09:31:14.530Z,50.47
2023-02-09T09:32:15.483Z,51.34
2023-02-09T09:33:12.186Z,50.15
2023-02-09T09:34:08.749Z,49.51
2023-02-09T09:35:05.816Z,50.80
2023-02-09T09:36:04.168Z,48.98
2023-02-09T09:37:00.749Z,51.46
2023-02-09T09:37:58.574Z,52.11
2023-02-09T09:38:56.521Z,49.61
2023-02-09T09:39:53.367Z,48.44
2023-02-09T09:40:49.957Z,50.00
2023-02-09T09:41:49.076Z,50.65
2023-02-09T09:42:51.546Z,49.15
2023-02-09T09:43:49.041Z,48.80
2023-02-09T09:44:47.318Z,49.17
2023-02-09T09:45:46.824Z,49.20
2023-02-09T09:46:47.949Z,49.09
2023-02-09T09:47:45.235Z,49.23
2023-02-09T09:48:49.200Z,49.07
2023-02-09T09:49:46.189Z,49.99
2023-02-09T09:50:43.988Z,49.84
2023-02-09T09:51:46.324Z,48.49
2023-02-09T09:52:47.632Z,50.82
2023-02-09T09:53:46.125Z,49.99
2023-02-09T09:54:44.197Z,50.31
2023-02-09T09:55:41.084Z,48.35
2023-02-09T09:56:38.727Z,48.99
2023-02-09T09:57:40.574Z,50.15
2023-02-09T09:58:43.343Z,49.25
2023-02-09T09:59:42.266Z,49.74
2023-02-09T10:00:41.343Z,50.01
2023-02-09T10:01:38.025Z,48.05
2023-02-09T10:02:34.931Z,48.47
2023-02-09T10:03:31.496Z,48.78
2023-02-09T10:04:28.709Z,47.89
2023-02-09T10:05:35.318Z,48.58
2023-02-09T10:06:35.374Z,49.49
2023-02-09T10:08:49.501Z,47.01
2023-02-09T10:09:52.520Z,47.68
2023-02-09T10:10:59.898Z,47.42
2023-02-09T10:12:18.573Z,48.03
2023-02-09T10:13:23.214Z,47.15
2023-02-09T10:14:20.596Z,48.18
2023-02-09T10:15:24.154Z,48.05
2023-02-09T10:16:20.739Z,48.21
2023-02-09T10:17:17.372Z,46.77
2023-02-09T10:18:17.171Z,47.61
2023-02-09T10:19:23.320Z,47.96
2023-02-09T10:20:41.480Z,47.04
2023-02-09T10:21:38.482Z,47.15
2023-02-09T10:22:35.410Z,47.94
2023-02-09T10:24:01.004Z,47.44
2023-02-09T10:24:59.468Z,47.34
2023-02-09T10:26:16.181Z,46.80
2023-02-09T10:27:31.843Z,47.03
2023-02-09T10:28:34.557Z,46.96
2023-02-09T10:29:31.633Z,46.62
2023-02-09T10:30:28.937Z,45.02
2023-02-09T10:31:47.673Z,46.58
2023-02-09T10:32:44.719Z,46.05
2023-02-09T10:33:44.635Z,46.44
2023-02-09T10:34:46.296Z,46.15
2023-02-09T10:36:06.183Z,47.21
2023-02-09T10:37:28.429Z,46.50
2023-02-09T10:38:33.003Z,45.84
2023-02-09T10:39:34.007Z,45.69
2023-02-09T10:40:39.292Z,47.01
2023-02-09T10:41:36.059Z,46.72
2023-02-09T10:42:37.660Z,45.35
2023-02-09T10:43:35.306Z,46.77
2023-02-09T10:44:35.517Z,46.65
2023-02-09T10:45:42.161Z,46.76
2023-02-09T10:46:39.869Z,47.96
2023-02-09T10:47:36.639Z,46.37
2023-02-09T10:48:41.518Z,46.92
2023-02-09T10:49:40.070Z,48.38
2023-02-09T10:50:48.406Z,48.04
2023-02-09T10:51:45.003Z,46.85
2023-02-09T10:52:56.319Z,46.68
2023-02-09T10:53:55.713Z,48.74
2023-02-09T10:54:52.302Z,48.65
2023-02-09T10:55:49.144Z,47.89
2023-02-09T10:56:48.427Z,47.24
2023-02-09T10:57:44.980Z,48.30
2023-02-09T10:58:41.938Z,47.98
2023-02-09T10:59:41.445Z,48.03
2023-02-09T11:00:51.437Z,48.89
2023-02-09T11:01:57.592Z,50.15
2023-02-09T11:02:57.720Z,50.59
2023-02-09T11:04:02.091Z,51.88
2023-02-09T11:04:58.741Z,51.06
2023-02-09T11:06:02.736Z,50.52
2023-02-09T11:07:02.521Z,50.65
2023-02-09T11:08:06.680Z,50.00
2023-02-09T11:09:12.076Z,50.19
2023-02-09T11:10:13.146Z,48.55
2023-02-09T11:11:37.741Z,48.77
2023-02-09T11:12:35.487Z,50.48
2023-02-09T11:13:33.374Z,48.24
2023-02-09T11:14:30.235Z,48.69
2023-02-09T11:15:31.379Z,49.15
2023-02-09T11:16:56.114Z,50.11
2023-02-09T11:18:10.989Z,49.08
2023-02-09T11:19:26.128Z,50.76
2023-02-09T11:20:37.823Z,48.31
2023-02-09T11:22:01.465Z,48.13
2023-02-09T11:23:17.745Z,47.98
2023-02-09T11:24:37.356Z,48.68
2023-02-09T11:25:43.655Z,50.17
2023-02-09T11:26:51.506Z,49.48
2023-02-09T11:28:25.324Z,48.06
2023-02-09T11:29:40.951Z,49.29
2023-02-09T11:30:49.862Z,47.88
2023-02-09T11:32:02.093Z,47.94
2023-02-09T11:33:26.700Z,50.83
2023-02-09T11:34:26.424Z,49.14
2023-02-09T11:35:26.902Z,48.03
2023-02-09T11:36:23.646Z,49.06
2023-02-09T11:37:37.241Z,48.93
2023-02-09T11:38:38.335Z,48.85
2023-02-09T11:40:07.873Z,46.85
2023-02-09T11:41:29.738Z,46.54
2023-02-09T11:42:46.834Z,48.52
2023-02-09T11:43:45.779Z,47.86
2023-02-09T11:44:53.403Z,48.61
2023-02-09T11:45:52.520Z,49.42
2023-02-09T11:46:58.724Z,49.09
2023-02-09T11:48:13.868Z,48.33
2023-02-09T11:49:21.864Z,48.70
2023-02-09T11:50:33.491Z,48.75
2023-02-09T11:51:34.608Z,47.32
2023-02-09T11:52:44.521Z,47.17
2023-02-09T11:53:59.692Z,49.15
2023-02-09T11:55:02.615Z,49.10
2023-02-09T11:56:02.151Z,46.95
2023-02-09T11:57:03.200Z,46.77
2023-02-09T11:58:12.526Z,47.65
2023-02-09T11:59:32.836Z,47.19
2023-02-09T12:00:52.421Z,47.25
2023-02-09T12:02:08.575Z,46.70
2023-02-09T12:03:11.746Z,46.48
2023-02-09T12:04:29.457Z,45.54
2023-02-09T12:05:26.937Z,47.55
2023-02-09T12:06:24.619Z,47.29
2023-02-09T12:07:32.832Z,47.54
2023-02-09T12:08:35.411Z,46.57
2023-02-09T12:09:40.024Z,48.93
2023-02-09T12:10:55.350Z,46.58
2023-02-09T12:12:21.043Z,46.77
2023-02-09T12:13:40.347Z,45.24
2023-02-09T12:15:10.836Z,47.95
2023-02-09T12:16:20.607Z,46.25
2023-02-09T12:17:23.343Z,46.88
2023-02-09T12:18:30.845Z,44.94
2023-02-09T12:19:35.186Z,44.34
2023-02-09T12:20:49.828Z,45.66
2023-02-09T12:21:46.539Z,48.28
2023-02-09T12:22:52.244Z,46.69
2023-02-09T12:23:48.903Z,47.68
2023-02-09T12:25:13.413Z,45.10
2023-02-09T12:26:13.151Z,46.59
2023-02-09T12:27:27.322Z,45.43
2023-02-09T12:28:23.942Z,45.81
2023-02-09T12:29:36.239Z,47.42
2023-02-09T12:30:45.139Z,45.11
2023-02-09T12:32:03.409Z,44.90
2023-02-09T12:33:24.569Z,43.57
2023-02-09T12:34:27.719Z,44.83
2023-02-09T12:35:38.031Z,45.33
2023-02-09T12:36:35.454Z,44.37
2023-02-09T12:37:32.342Z,44.44
2023-02-09T12:38:54.516Z,42.97
2023-02-09T12:40:20.352Z,44.78
2023-02-09T12:41:17.936Z,43.89
2023-02-09T12:42:14.463Z,44.29
2023-02-09T12:43:28.747Z,46.03
2023-02-09T12:44:27.630Z,43.00
2023-02-09T12:45:44.850Z,43.47
2023-02-09T12:46:45.003Z,43.31
2023-02-09T12:47:44.607Z,45.03
2023-02-09T12:48:51.376Z,44.03
2023-02-09T12:49:48.030Z,45.38
2023-02-09T12:50:53.798Z,44.76
2023-02-09T12:51:50.382Z,43.33
2023-02-09T12:53:24.266Z,44.90
2023-02-09T12:54:49.641Z,44.74
2023-02-09T12:56:05.098Z,42.82
2023-02-09T12:57:17.006Z,43.78
2023-02-09T12:58:39.697Z,44.24
2023-02-09T12:59:38.776Z,43.18
2023-02-09T13:00:41.887Z,44.34
2023-02-09T13:02:24.200Z,45.40
2023-02-09T13:03:23.340Z,45.64